createdAt,value
2019-01-27T10:04:39.337Z,38.47
2019-01-27T10:07:09.720Z,33.10
2019-01-27T10:09:45.639Z,32.30
2019-01-27T10:12:15.794Z,32.37
2019-01-27T10:14:48.730Z,29.47
2019-01-27T10:17:34.782Z,33.63
2019-01-27T10:20:24.830Z,33.30
2019-01-27T10:22:55.098Z,30.77
2019-01-27T10:25:28.106Z,30.40
2019-01-27T10:28:10.421Z,25.80
2019-01-27T10:30:49.472Z,28.97
2019-01-27T10:33:20.002Z,26.40
2019-01-27T10:36:05.952Z,28.87
2019-01-27T10:38:48.001Z,27.10
2019-01-27T10:41:27.233Z,30.70
2019-01-27T10:43:57.424Z,28.60
2019-01-27T10:46:28.029Z,33.17
2019-01-27T10:49:14.246Z,36.40
2019-01-27T10:51:44.336Z,34.07
2019-01-27T10:54:20.230Z,33.70
2019-01-27T10:56:50.385Z,30.97
2019-01-27T10:59:36.908Z,29.90
2019-01-27T11:02:14.415Z,30.40
2019-01-27T11:04:56.121Z,29.73
2019-01-27T11:07:30.822Z,30.03
2019-01-27T11:10:01.014Z,30.63
2019-01-27T11:12:37.290Z,29.70
2019-01-27T11:15:21.674Z,35.37
2019-01-27T11:17:54.921Z,34.23
2019-01-27T11:20:25.162Z,36.83
2019-01-27T11:22:55.351Z,34.77
2019-01-27T11:25:25.451Z,35.17
2019-01-27T11:27:56.785Z,30.50
2019-01-27T11:30:43.338Z,30.53
2019-01-27T11:33:22.170Z,31.33
2019-01-27T11:35:55.365Z,30.37
2019-01-27T11:38:34.407Z,34.73
2019-01-27T11:41:20.829Z,30.83
2019-01-27T11:43:50.910Z,31.80
2019-01-27T11:46:21.142Z,37.47
2019-01-27T11:48:51.321Z,32.70
2019-01-27T11:51:21.545Z,33.20
2019-01-27T11:53:50.062Z,32.70
2019-01-27T11:56:18.677Z,33.17
2019-01-27T11:58:47.129Z,29.83
2019-01-27T12:01:15.729Z,32.73
2019-01-27T12:03:44.290Z,40.27
2019-01-27T12:06:12.814Z,49.90
2019-01-27T12:08:41.437Z,47.27
2019-01-27T12:11:10.418Z,39.07
2019-01-27T12:13:38.933Z,38.70
2019-01-27T12:16:07.465Z,31.67
2019-01-27T12:18:36.099Z,28.77
2019-01-27T12:21:04.697Z,28.93
2019-01-27T12:23:33.293Z,29.07
2019-01-27T12:26:01.926Z,29.77
2019-01-27T12:28:30.662Z,30.37
2019-01-27T12:30:59.190Z,32.57
2019-01-27T12:33:27.810Z,29.50
2019-01-27T12:35:56.398Z,31.03
2019-01-27T12:38:24.917Z,36.03
2019-01-27T12:40:53.469Z,29.57
2019-01-27T12:43:22.073Z,30.47
2019-01-27T12:45:50.664Z,38.10
2019-01-27T12:48:19.289Z,30.30
2019-01-27T12:50:47.878Z,30.47
2019-01-27T12:53:16.603Z,31.70
2019-01-27T12:55:45.317Z,32.70
2019-01-27T12:58:13.767Z,33.33
2019-01-27T13:00:45.506Z,31.53
2019-01-27T13:03:14.153Z,32.60
2019-01-27T13:05:42.757Z,34.73
2019-01-27T13:08:12.040Z,31.37
2019-01-27T13:10:41.113Z,34.03
2019-01-27T13:13:12.080Z,35.70
2019-01-27T13:15:39.908Z,33.27
2019-01-27T13:18:08.596Z,36.23
2019-01-27T13:20:37.202Z,33.73
2019-01-27T13:23:05.793Z,34.67
2019-01-27T13:25:34.408Z,48.37
2019-01-27T13:28:04.274Z,34.30
2019-01-27T13:30:32.871Z,37.63
2019-01-27T13:33:03.294Z,33.83
2019-01-27T13:35:32.057Z,30.43
2019-01-27T13:38:00.653Z,32.77
2019-01-27T13:40:29.210Z,29.03
2019-01-27T13:42:57.729Z,31.60
2019-01-27T13:45:28.996Z,30.03
2019-01-27T13:47:59.193Z,31.17
2019-01-27T13:50:27.941Z,32.70
2019-01-27T13:52:57.037Z,30.23
2019-01-27T13:55:33.448Z,31.73
2019-01-27T13:58:02.037Z,29.63
2019-01-27T14:00:33.122Z,33.63
2019-01-27T14:03:01.774Z,34.10
2019-01-27T14:05:30.773Z,32.10
2019-01-27T14:08:00.833Z,30.00
2019-01-27T14:10:30.567Z,31.90
2019-01-27T14:12:59.384Z,32.00
2019-01-27T14:15:30.521Z,41.87
2019-01-27T14:17:59.139Z,33.40
2019-01-27T14:20:27.912Z,29.70
2019-01-27T14:22:56.582Z,32.03
2019-01-27T14:25:27.781Z,29.67
2019-01-27T14:27:56.373Z,30.27
2019-01-27T14:30:30.124Z,28.00
2019-01-27T14:32:58.807Z,30.23
2019-01-27T14:35:27.325Z,28.70
2019-01-27T14:37:55.922Z,31.20
2019-01-27T14:40:29.422Z,30.23
2019-01-27T14:42:57.946Z,32.53
2019-01-27T14:45:34.382Z,33.67
2019-01-27T14:48:03.470Z,33.57
2019-01-27T14:50:40.593Z,31.00
2019-01-27T14:53:09.385Z,31.40
2019-01-27T14:55:38.055Z,33.73
2019-01-27T14:58:06.987Z,33.60
2019-01-27T15:00:40.777Z,34.20
2019-01-27T15:03:09.371Z,34.57
2019-01-27T15:05:38.156Z,33.87
2019-01-27T15:08:06.961Z,41.07
2019-01-27T15:10:35.862Z,60.07
2019-01-27T15:13:05.362Z,45.77
2019-01-27T15:15:33.951Z,38.00
2019-01-27T15:18:02.613Z,34.47
2019-01-27T15:20:45.562Z,33.33
2019-01-27T15:23:15.729Z,31.77
2019-01-27T15:25:44.325Z,31.17
2019-01-27T15:28:12.957Z,30.70
2019-01-27T15:30:41.623Z,33.97
2019-01-27T15:33:10.305Z,28.30
2019-01-27T15:35:39.005Z,28.10
2019-01-27T15:38:07.594Z,28.60
2019-01-27T15:40:36.190Z,32.50
2019-01-27T15:43:04.906Z,29.60
2019-01-27T15:45:33.999Z,34.37
2019-01-27T15:48:02.657Z,36.70
2019-01-27T15:50:36.114Z,34.67
2019-01-27T15:53:06.205Z,30.93
2019-01-27T15:55:37.098Z,31.43
2019-01-27T15:58:05.721Z,35.57
2019-01-27T16:00:34.373Z,34.77
2019-01-27T16:03:02.829Z,31.47
2019-01-27T16:05:31.397Z,33.40
2019-01-27T16:08:00.230Z,31.17
2019-01-27T16:10:29.313Z,31.17
2019-01-27T16:12:58.605Z,29.43
2019-01-27T16:15:32.149Z,30.00
2019-01-27T16:18:00.747Z,29.73
2019-01-27T16:20:29.333Z,28.70
2019-01-27T16:23:11.153Z,29.93
2019-01-27T16:25:41.315Z,30.10
2019-01-27T16:28:10.150Z,32.47
2019-01-27T16:30:44.574Z,32.03
2019-01-27T16:33:12.293Z,30.10
2019-01-27T16:35:40.917Z,30.07
2019-01-27T16:38:09.478Z,31.23
2019-01-27T16:40:39.710Z,32.17
2019-01-27T16:43:09.058Z,29.70
2019-01-27T16:45:37.940Z,29.67
2019-01-27T16:48:06.589Z,29.57
2019-01-27T16:50:35.180Z,28.10
2019-01-27T16:53:04.249Z,29.20
2019-01-27T16:55:32.778Z,31.97
2019-01-27T16:58:01.482Z,34.63
2019-01-27T17:00:31.370Z,36.30
2019-01-27T17:02:59.893Z,54.90
2019-01-27T17:05:28.483Z,66.13
2019-01-27T17:07:57.543Z,61.90
2019-01-27T17:10:27.744Z,50.80
2019-01-27T17:12:56.409Z,31.70
2019-01-27T17:15:25.033Z,30.73
2019-01-27T17:17:53.549Z,31.60
2019-01-27T17:20:25.800Z,29.97
2019-01-27T17:22:53.885Z,31.57
2019-01-27T17:25:22.684Z,30.93
2019-01-27T17:27:52.818Z,30.87
2019-01-27T17:30:25.854Z,30.03
2019-01-27T17:32:54.557Z,32.60
2019-01-27T17:35:23.829Z,33.20
2019-01-27T17:37:52.646Z,34.53
2019-01-27T17:40:21.738Z,36.70
2019-01-27T17:42:50.425Z,35.60
2019-01-27T17:45:27.815Z,33.57
2019-01-27T17:47:56.400Z,35.03
2019-01-27T17:50:25.562Z,32.27
2019-01-27T17:52:54.451Z,29.73
2019-01-27T17:55:42.709Z,27.67
2019-01-27T17:58:43.630Z,28.80
2019-01-27T18:01:30.178Z,29.40
2019-01-27T18:04:00.625Z,30.37
2019-01-27T18:06:33.600Z,29.57
2019-01-27T18:09:03.908Z,35.10
2019-01-27T18:11:40.279Z,31.90
2019-01-27T18:14:10.431Z,30.63
2019-01-27T18:16:38.949Z,29.67
2019-01-27T18:19:07.526Z,28.20
2019-01-27T18:21:36.187Z,28.03
2019-01-27T18:24:05.082Z,29.43
2019-01-27T18:26:33.718Z,27.53
2019-01-27T18:29:02.377Z,27.03
2019-01-27T18:31:30.898Z,29.80
2019-01-27T18:33:59.453Z,27.90
2019-01-27T18:36:28.189Z,25.93
2019-01-27T18:38:56.865Z,30.60
2019-01-27T18:41:25.487Z,29.30
2019-01-27T18:43:54.074Z,28.93
2019-01-27T18:46:22.665Z,27.93
2019-01-27T18:48:51.819Z,30.83
2019-01-27T18:51:20.407Z,32.10
2019-01-27T18:53:53.414Z,32.30
2019-01-27T18:56:23.605Z,33.80
2019-01-27T18:58:53.766Z,37.47
2019-01-27T19:01:23.923Z,39.47
2019-01-27T19:04:02.898Z,44.40
2019-01-27T19:06:33.050Z,45.73
2019-01-27T19:09:09.099Z,42.30
2019-01-27T19:11:47.563Z,41.33
2019-01-27T19:14:17.753Z,35.50
2019-01-27T19:17:03.852Z,37.00
2019-01-27T19:19:39.934Z,42.77
2019-01-27T19:22:13.060Z,136.87
2019-01-27T19:24:45.813Z,126.37
2019-01-27T19:27:15.905Z,73.97
2019-01-27T19:29:51.618Z,36.03
2019-01-27T19:32:24.563Z,32.40
2019-01-27T19:34:54.738Z,35.57
2019-01-27T19:37:24.930Z,35.73
2019-01-27T19:40:06.990Z,37.37
2019-01-27T19:42:37.382Z,38.43
2019-01-27T19:45:13.892Z,37.30
2019-01-27T19:50:37.384Z,46.27
2019-01-27T19:53:10.188Z,40.87
2019-01-27T19:55:56.359Z,39.20
2019-01-27T19:58:26.593Z,43.83
2019-01-27T20:00:59.346Z,40.57
2019-01-27T20:03:35.373Z,37.27
2019-01-27T20:06:15.083Z,36.60
2019-01-27T20:09:00.051Z,36.43
2019-01-27T20:11:33.174Z,35.07
2019-01-27T20:14:08.858Z,32.53
2019-01-27T20:16:39.097Z,30.67
2019-01-27T20:19:20.958Z,29.60
2019-01-27T20:21:53.676Z,29.73
2019-01-27T20:24:41.129Z,31.00
2019-01-27T20:27:11.296Z,32.07
2019-01-27T20:29:44.362Z,38.17
2019-01-27T20:32:17.310Z,35.07
2019-01-27T20:34:52.939Z,29.87
2019-01-27T20:37:25.850Z,28.70
2019-01-27T20:40:01.487Z,29.93
2019-01-27T20:42:46.610Z,29.23
2019-01-27T20:45:16.775Z,35.50
2019-01-27T20:47:52.686Z,33.57
2019-01-27T20:50:34.710Z,39.20
2019-01-27T20:53:04.913Z,41.00
2019-01-27T20:55:40.981Z,35.23
2019-01-27T20:58:13.704Z,35.30
2019-01-27T21:00:43.931Z,34.33
2019-01-27T21:03:25.929Z,36.53
2019-01-27T21:06:02.305Z,34.97
2019-01-27T21:08:38.610Z,32.47
2019-01-27T21:11:11.601Z,33.50
2019-01-27T21:13:44.647Z,34.60
2019-01-27T21:16:14.953Z,38.07
2019-01-27T21:18:45.039Z,42.80
2019-01-27T21:21:13.597Z,38.93
2019-01-27T21:23:42.124Z,35.70
2019-01-27T21:26:10.720Z,36.33
2019-01-27T21:28:39.202Z,35.77
2019-01-27T21:31:07.654Z,35.53
2019-01-27T21:33:36.103Z,30.70
2019-01-27T21:36:04.922Z,32.80
2019-01-27T21:38:33.457Z,31.23
2019-01-27T21:41:02.134Z,30.77
2019-01-27T21:43:30.618Z,29.23
2019-01-27T21:45:59.212Z,29.30
2019-01-27T21:48:27.734Z,28.70
2019-01-27T21:50:56.387Z,30.13
2019-01-27T21:53:24.905Z,27.07
2019-01-27T21:55:53.421Z,30.03
2019-01-27T21:58:21.911Z,30.03
2019-01-27T22:00:50.444Z,29.67
2019-01-27T22:03:19.038Z,27.60
2019-01-27T22:05:47.700Z,29.23
2019-01-27T22:08:16.300Z,28.97
2019-01-27T22:10:44.903Z,29.30
2019-01-27T22:13:13.550Z,30.77
2019-01-27T22:15:42.145Z,28.33
2019-01-27T22:18:10.737Z,30.20
2019-01-27T22:20:39.246Z,31.77
2019-01-27T22:23:08.184Z,30.17
2019-01-27T22:25:36.758Z,30.03
2019-01-27T22:28:05.389Z,29.30
2019-01-27T22:30:33.846Z,28.77
2019-01-27T22:33:02.365Z,29.53
2019-01-27T22:35:30.915Z,30.30
2019-01-27T22:37:59.442Z,33.27
2019-01-27T22:40:28.029Z,31.93
2019-01-27T22:42:56.575Z,34.17
2019-01-27T22:45:25.093Z,32.97
2019-01-27T22:47:53.621Z,31.80
2019-01-27T22:50:22.094Z,30.97
2019-01-27T22:52:50.690Z,30.67
2019-01-27T22:55:19.286Z,31.13
2019-01-27T22:57:47.929Z,28.97
2019-01-27T23:00:23.837Z,28.83
2019-01-27T23:02:52.458Z,27.27
2019-01-27T23:05:21.046Z,30.53
2019-01-27T23:07:49.658Z,32.83
2019-01-27T23:10:18.365Z,30.27
2019-01-27T23:12:46.934Z,34.93
2019-01-27T23:15:15.527Z,30.07
2019-01-27T23:17:44.086Z,28.60
2019-01-27T23:20:12.677Z,29.43
2019-01-27T23:22:42.071Z,31.07
2019-01-27T23:25:10.831Z,30.00
2019-01-27T23:27:39.433Z,29.33
2019-01-27T23:30:09.732Z,33.80
2019-01-27T23:32:38.345Z,35.33
2019-01-27T23:35:09.878Z,31.47
2019-01-27T23:37:38.603Z,31.67
2019-01-27T23:40:08.879Z,35.23
2019-01-27T23:42:38.922Z,34.37
2019-01-27T23:45:12.163Z,33.03
2019-01-27T23:47:40.794Z,34.50
2019-01-27T23:50:10.413Z,32.80
2019-01-27T23:52:38.939Z,34.13
2019-01-27T23:55:09.668Z,31.67
2019-01-27T23:57:38.334Z,31.50
